sensor_id;sensor_type;location;lat;lon;timestamp;pressure;altitude;pressure_sealevel;temperature;humidity
77590;BME280;66746;51.328;12.332;2023-05-07T00:00:41;100839.78;;;10.01;85.81
77590;BME280;66746;51.328;12.332;2023-05-07T00:03:08;100843.59;;;9.94;86.32
77590;BME280;66746;51.328;12.332;2023-05-07T00:05:35;100842.66;;;9.96;86.21
77590;BME280;66746;51.328;12.332;2023-05-07T00:08:01;100831.19;;;9.87;85.98
77590;BME280;66746;51.328;12.332;2023-05-07T00:10:28;100832.22;;;9.81;86.10
77590;BME280;66746;51.328;12.332;2023-05-07T00:12:54;100835.53;;;9.58;86.25
77590;BME280;66746;51.328;12.332;2023-05-07T00:15:21;100840.19;;;9.53;87.59
77590;BME280;66746;51.328;12.332;2023-05-07T00:17:47;100829.38;;;9.53;87.90
77590;BME280;66746;51.328;12.332;2023-05-07T00:20:15;100829.38;;;9.52;87.62
77590;BME280;66746;51.328;12.332;2023-05-07T00:22:42;100830.16;;;9.57;88.70
77590;BME280;66746;51.328;12.332;2023-05-07T00:25:08;100834.56;;;9.61;87.66
77590;BME280;66746;51.328;12.332;2023-05-07T00:27:35;100830.03;;;9.61;86.50
77590;BME280;66746;51.328;12.332;2023-05-07T00:30:01;100837.94;;;9.70;86.61
77590;BME280;66746;51.328;12.332;2023-05-07T00:32:27;100831.72;;;9.65;85.87
77590;BME280;66746;51.328;12.332;2023-05-07T00:34:54;100833.84;;;9.54;86.01
77590;BME280;66746;51.328;12.332;2023-05-07T00:37:22;100834.78;;;9.53;85.90
77590;BME280;66746;51.328;12.332;2023-05-07T00:39:48;100831.38;;;9.45;85.14
77590;BME280;66746;51.328;12.332;2023-05-07T00:42:15;100844.97;;;9.42;85.67
77590;BME280;66746;51.328;12.332;2023-05-07T00:44:41;100841.50;;;9.37;86.44
77590;BME280;66746;51.328;12.332;2023-05-07T00:47:08;100839.72;;;9.36;86.64
77590;BME280;66746;51.328;12.332;2023-05-07T00:49:37;100848.91;;;9.29;86.46
77590;BME280;66746;51.328;12.332;2023-05-07T00:52:05;100839.94;;;9.27;85.92
77590;BME280;66746;51.328;12.332;2023-05-07T00:54:34;100845.28;;;9.30;85.73
77590;BME280;66746;51.328;12.332;2023-05-07T00:57:02;100850.81;;;9.26;85.98
77590;BME280;66746;51.328;12.332;2023-05-07T00:59:29;100858.03;;;9.25;87.47
77590;BME280;66746;51.328;12.332;2023-05-07T01:01:56;100845.28;;;9.30;87.18
77590;BME280;66746;51.328;12.332;2023-05-07T01:04:23;100847.91;;;9.33;86.99
77590;BME280;66746;51.328;12.332;2023-05-07T01:06:51;100857.66;;;9.40;85.64
77590;BME280;66746;51.328;12.332;2023-05-07T01:09:19;100853.94;;;9.44;85.87
77590;BME280;66746;51.328;12.332;2023-05-07T01:11:47;100857.50;;;9.46;86.14
77590;BME280;66746;51.328;12.332;2023-05-07T01:14:15;100848.63;;;9.40;85.45
77590;BME280;66746;51.328;12.332;2023-05-07T01:16:42;100843.13;;;9.44;86.99
77590;BME280;66746;51.328;12.332;2023-05-07T01:19:09;100835.09;;;9.41;86.33
77590;BME280;66746;51.328;12.332;2023-05-07T01:21:37;100835.94;;;9.43;86.45
77590;BME280;66746;51.328;12.332;2023-05-07T01:24:07;100834.16;;;9.42;85.80
77590;BME280;66746;51.328;12.332;2023-05-07T01:26:33;100839.41;;;9.48;86.99
77590;BME280;66746;51.328;12.332;2023-05-07T01:29:00;100834.84;;;9.50;85.77
77590;BME280;66746;51.328;12.332;2023-05-07T01:31:27;100842.06;;;9.50;85.93
77590;BME280;66746;51.328;12.332;2023-05-07T01:33:53;100842.97;;;9.50;85.47
77590;BME280;66746;51.328;12.332;2023-05-07T01:36:22;100852.09;;;9.46;85.09
77590;BME280;66746;51.328;12.332;2023-05-07T01:38:48;100847.63;;;9.45;85.89
77590;BME280;66746;51.328;12.332;2023-05-07T01:41:17;100850.44;;;9.41;85.05
77590;BME280;66746;51.328;12.332;2023-05-07T01:43:44;100839.66;;;9.39;85.38
77590;BME280;66746;51.328;12.332;2023-05-07T01:46:12;100840.75;;;9.31;86.34
77590;BME280;66746;51.328;12.332;2023-05-07T01:48:39;100846.28;;;9.26;86.51
77590;BME280;66746;51.328;12.332;2023-05-07T01:51:05;100839.94;;;9.27;86.91
77590;BME280;66746;51.328;12.332;2023-05-07T01:53:35;100849.97;;;9.24;86.31
77590;BME280;66746;51.328;12.332;2023-05-07T01:56:02;100865.31;;;9.23;87.02
77590;BME280;66746;51.328;12.332;2023-05-07T01:58:30;100864.22;;;9.30;88.47
77590;BME280;66746;51.328;12.332;2023-05-07T02:00:57;100866.91;;;9.30;88.17
77590;BME280;66746;51.328;12.332;2023-05-07T02:03:23;100861.50;;;9.30;86.94
77590;BME280;66746;51.328;12.332;2023-05-07T02:05:57;100867.81;;;9.31;86.91
77590;BME280;66746;51.328;12.332;2023-05-07T02:08:31;100865.06;;;9.32;87.70
77590;BME280;66746;51.328;12.332;2023-05-07T02:10:58;100862.41;;;9.31;86.83
77590;BME280;66746;51.328;12.332;2023-05-07T02:13:26;100857.09;;;9.28;87.22
77590;BME280;66746;51.328;12.332;2023-05-07T02:15:54;100853.47;;;9.27;87.55
77590;BME280;66746;51.328;12.332;2023-05-07T02:18:22;100851.78;;;9.23;87.82
77590;BME280;66746;51.328;12.332;2023-05-07T02:20:49;100845.41;;;9.24;87.97
77590;BME280;66746;51.328;12.332;2023-05-07T02:23:16;100839.16;;;9.22;87.75
77590;BME280;66746;51.328;12.332;2023-05-07T02:25:42;100845.56;;;9.20;87.38
77590;BME280;66746;51.328;12.332;2023-05-07T02:28:09;100850.91;;;9.21;87.98
77590;BME280;66746;51.328;12.332;2023-05-07T02:30:45;100852.66;;;9.24;88.15
77590;BME280;66746;51.328;12.332;2023-05-07T02:33:13;100850.78;;;9.27;87.24
77590;BME280;66746;51.328;12.332;2023-05-07T02:35:40;100851.00;;;9.18;87.21
77590;BME280;66746;51.328;12.332;2023-05-07T02:38:06;100859.13;;;9.17;87.47
77590;BME280;66746;51.328;12.332;2023-05-07T02:40:33;100861.84;;;9.17;87.33
77590;BME280;66746;51.328;12.332;2023-05-07T02:43:00;100861.97;;;9.12;88.09
77590;BME280;66746;51.328;12.332;2023-05-07T02:45:27;100862.03;;;9.09;87.03
77590;BME280;66746;51.328;12.332;2023-05-07T02:47:54;100861.06;;;9.12;87.67
77590;BME280;66746;51.328;12.332;2023-05-07T02:50:22;100867.44;;;9.09;87.58
77590;BME280;66746;51.328;12.332;2023-05-07T02:52:48;100861.97;;;9.12;88.47
77590;BME280;66746;51.328;12.332;2023-05-07T02:55:15;100883.63;;;9.12;87.36
77590;BME280;66746;51.328;12.332;2023-05-07T02:57:41;100866.34;;;9.18;87.68
77590;BME280;66746;51.328;12.332;2023-05-07T03:00:12;100867.25;;;9.18;87.58
77590;BME280;66746;51.328;12.332;2023-05-07T03:02:43;100868.25;;;9.14;86.98
77590;BME280;66746;51.328;12.332;2023-05-07T03:05:09;100867.34;;;9.14;87.16
77590;BME280;66746;51.328;12.332;2023-05-07T03:07:38;100865.44;;;9.17;86.94
77590;BME280;66746;51.328;12.332;2023-05-07T03:10:05;100866.34;;;9.18;87.13
77590;BME280;66746;51.328;12.332;2023-05-07T03:12:31;100868.91;;;9.22;87.45
77590;BME280;66746;51.328;12.332;2023-05-07T03:14:58;100853.72;;;9.18;86.77
77590;BME280;66746;51.328;12.332;2023-05-07T03:17:24;100863.75;;;9.13;86.56
77590;BME280;66746;51.328;12.332;2023-05-07T03:19:50;100861.00;;;9.15;86.92
77590;BME280;66746;51.328;12.332;2023-05-07T03:22:17;100873.81;;;9.07;87.73
77590;BME280;66746;51.328;12.332;2023-05-07T03:24:45;100863.03;;;9.05;87.18
77590;BME280;66746;51.328;12.332;2023-05-07T03:27:12;100872.03;;;9.06;86.83
77590;BME280;66746;51.328;12.332;2023-05-07T03:29:38;100869.25;;;9.10;88.90
77590;BME280;66746;51.328;12.332;2023-05-07T03:32:05;100864.69;;;9.12;88.34
77590;BME280;66746;51.328;12.332;2023-05-07T03:34:31;100862.94;;;9.10;88.01
77590;BME280;66746;51.328;12.332;2023-05-07T03:36:58;100870.94;;;9.14;88.51
77590;BME280;66746;51.328;12.332;2023-05-07T03:39:24;100865.44;;;9.17;87.01
77590;BME280;66746;51.328;12.332;2023-05-07T03:41:52;100863.75;;;9.13;87.47
77590;BME280;66746;51.328;12.332;2023-05-07T03:44:19;100868.34;;;9.10;87.59
77590;BME280;66746;51.328;12.332;2023-05-07T03:46:45;100867.34;;;9.14;87.45
77590;BME280;66746;51.328;12.332;2023-05-07T03:49:12;100876.38;;;9.13;88.03
77590;BME280;66746;51.328;12.332;2023-05-07T03:51:38;100883.63;;;9.12;87.31
77590;BME280;66746;51.328;12.332;2023-05-07T03:54:07;100896.16;;;9.16;87.12
77590;BME280;66746;51.328;12.332;2023-05-07T03:56:33;100897.78;;;9.23;87.51
77590;BME280;66746;51.328;12.332;2023-05-07T03:59:01;100886.94;;;9.23;87.55
77590;BME280;66746;51.328;12.332;2023-05-07T04:01:28;100888.72;;;9.24;87.61
77590;BME280;66746;51.328;12.332;2023-05-07T04:03:55;100889.81;;;9.17;86.73
77590;BME280;66746;51.328;12.332;2023-05-07T04:06:23;100897.91;;;9.17;87.75
77590;BME280;66746;51.328;12.332;2023-05-07T04:08:50;100902.41;;;9.18;88.44
77590;BME280;66746;51.328;12.332;2023-05-07T04:11:16;100899.72;;;9.18;87.24
77590;BME280;66746;51.328;12.332;2023-05-07T04:13:43;100892.41;;;9.20;87.26
77590;BME280;66746;51.328;12.332;2023-05-07T04:16:11;100883.31;;;9.24;87.39
77590;BME280;66746;51.328;12.332;2023-05-07T04:18:38;100892.41;;;9.22;87.00
77590;BME280;66746;51.328;12.332;2023-05-07T04:21:04;100898.81;;;9.18;87.03
77590;BME280;66746;51.328;12.332;2023-05-07T04:23:33;100895.31;;;9.13;87.74
77590;BME280;66746;51.328;12.332;2023-05-07T04:26:02;100891.69;;;9.14;87.43
77590;BME280;66746;51.328;12.332;2023-05-07T04:28:36;100896.84;;;9.24;89.26
77590;BME280;66746;51.328;12.332;2023-05-07T04:31:03;100897.63;;;9.29;87.80
77590;BME280;66746;51.328;12.332;2023-05-07T04:33:32;100899.34;;;9.33;86.42
77590;BME280;66746;51.328;12.332;2023-05-07T04:36:01;100905.59;;;9.35;86.04
77590;BME280;66746;51.328;12.332;2023-05-07T04:38:29;100920.09;;;9.33;86.91
77590;BME280;66746;51.328;12.332;2023-05-07T04:40:55;100917.34;;;9.36;86.29
77590;BME280;66746;51.328;12.332;2023-05-07T04:43:24;100919.13;;;9.35;86.47
77590;BME280;66746;51.328;12.332;2023-05-07T04:45:50;100910.16;;;9.33;86.20
77590;BME280;66746;51.328;12.332;2023-05-07T04:48:18;100914.63;;;9.34;87.05
77590;BME280;66746;51.328;12.332;2023-05-07T04:50:47;100920.00;;;9.37;87.49
77590;BME280;66746;51.328;12.332;2023-05-07T04:53:13;100922.63;;;9.40;87.13
77590;BME280;66746;51.328;12.332;2023-05-07T04:55:40;100925.28;;;9.42;86.44
77590;BME280;66746;51.328;12.332;2023-05-07T04:58:07;100932.47;;;9.43;86.76
77590;BME280;66746;51.328;12.332;2023-05-07T05:00:35;100932.38;;;9.47;87.23
77590;BME280;66746;51.328;12.332;2023-05-07T05:03:04;100926.13;;;9.45;86.14
77590;BME280;66746;51.328;12.332;2023-05-07T05:05:31;100930.44;;;9.52;85.62
77590;BME280;66746;51.328;12.332;2023-05-07T05:08:00;100920.56;;;9.51;85.42
77590;BME280;66746;51.328;12.332;2023-05-07T05:10:27;100925.13;;;9.48;85.37
77590;BME280;66746;51.328;12.332;2023-05-07T05:12:55;100925.88;;;9.54;87.62
77590;BME280;66746;51.328;12.332;2023-05-07T05:15:23;100924.22;;;9.49;85.67
77590;BME280;66746;51.328;12.332;2023-05-07T05:17:52;100925.22;;;9.45;85.47
77590;BME280;66746;51.328;12.332;2023-05-07T05:20:19;100928.81;;;9.45;86.30
77590;BME280;66746;51.328;12.332;2023-05-07T05:22:49;100932.44;;;9.44;87.81
77590;BME280;66746;51.328;12.332;2023-05-07T05:25:18;100929.81;;;9.41;86.02
77590;BME280;66746;51.328;12.332;2023-05-07T05:27:45;100937.16;;;9.36;84.84
77590;BME280;66746;51.328;12.332;2023-05-07T05:30:12;100940.72;;;9.38;85.47
77590;BME280;66746;51.328;12.332;2023-05-07T05:32:40;100935.28;;;9.38;85.91
77590;BME280;66746;51.328;12.332;2023-05-07T05:35:08;100944.34;;;9.37;85.50
77590;BME280;66746;51.328;12.332;2023-05-07T05:37:35;100948.06;;;9.33;85.42
77590;BME280;66746;51.328;12.332;2023-05-07T05:40:04;100948.88;;;9.37;85.83
77590;BME280;66746;51.328;12.332;2023-05-07T05:42:32;100946.13;;;9.38;85.89
77590;BME280;66746;51.328;12.332;2023-05-07T05:44:59;100954.16;;;9.43;84.99
77590;BME280;66746;51.328;12.332;2023-05-07T05:47:26;100958.47;;;9.51;85.75
77590;BME280;66746;51.328;12.332;2023-05-07T05:49:54;100958.28;;;9.59;84.19
77590;BME280;66746;51.328;12.332;2023-05-07T05:52:21;100956.41;;;9.61;84.37
77590;BME280;66746;51.328;12.332;2023-05-07T05:54:47;100961.69;;;9.65;85.99
77590;BME280;66746;51.328;12.332;2023-05-07T05:57:14;100969.78;;;9.68;83.84
77590;BME280;66746;51.328;12.332;2023-05-07T05:59:42;100957.84;;;9.75;83.78
77590;BME280;66746;51.328;12.332;2023-05-07T06:02:08;100966.66;;;9.83;84.35
77590;BME280;66746;51.328;12.332;2023-05-07T06:04:35;100967.63;;;9.82;83.78
77590;BME280;66746;51.328;12.332;2023-05-07T06:07:02;100968.38;;;9.88;83.36
77590;BME280;66746;51.328;12.332;2023-05-07T06:09:29;100970.97;;;9.92;83.54
77590;BME280;66746;51.328;12.332;2023-05-07T06:11:56;100971.78;;;9.96;83.20
77590;BME280;66746;51.328;12.332;2023-05-07T06:14:26;100968.31;;;9.91;82.65
77590;BME280;66746;51.328;12.332;2023-05-07T06:16:55;100970.28;;;9.84;83.05
77590;BME280;66746;51.328;12.332;2023-05-07T06:19:22;100970.31;;;9.82;83.17
77590;BME280;66746;51.328;12.332;2023-05-07T06:21:50;100970.31;;;9.82;83.42
77590;BME280;66746;51.328;12.332;2023-05-07T06:24:16;100965.53;;;9.94;83.54
77590;BME280;66746;51.328;12.332;2023-05-07T06:26:43;100966.13;;;10.05;83.12
77590;BME280;66746;51.328;12.332;2023-05-07T06:29:09;100966.00;;;10.11;82.57
77590;BME280;66746;51.328;12.332;2023-05-07T06:31:38;100968.59;;;10.15;82.46
77590;BME280;66746;51.328;12.332;2023-05-07T06:34:08;100966.97;;;10.07;81.23
77590;BME280;66746;51.328;12.332;2023-05-07T06:36:37;100978.81;;;10.03;81.98
77590;BME280;66746;51.328;12.332;2023-05-07T06:39:16;100978.00;;;9.99;82.89
77590;BME280;66746;51.328;12.332;2023-05-07T06:41:43;100982.47;;;10.02;82.14
77590;BME280;66746;51.328;12.332;2023-05-07T06:44:20;100989.66;;;10.03;81.60
77590;BME280;66746;51.328;12.332;2023-05-07T06:46:57;100994.91;;;10.12;81.71
77590;BME280;66746;51.328;12.332;2023-05-07T06:49:25;100996.75;;;10.10;80.83
77590;BME280;66746;51.328;12.332;2023-05-07T06:51:52;101002.09;;;10.13;81.60
77590;BME280;66746;51.328;12.332;2023-05-07T06:54:19;101002.09;;;10.13;80.84
77590;BME280;66746;51.328;12.332;2023-05-07T06:56:48;100996.66;;;10.13;81.28
77590;BME280;66746;51.328;12.332;2023-05-07T06:59:16;100998.38;;;10.17;80.91
77590;BME280;66746;51.328;12.332;2023-05-07T07:01:42;101005.75;;;10.12;81.49
77590;BME280;66746;51.328;12.332;2023-05-07T07:04:10;101004.75;;;10.14;82.39
77590;BME280;66746;51.328;12.332;2023-05-07T07:06:41;101009.31;;;10.12;81.55
77590;BME280;66746;51.328;12.332;2023-05-07T07:09:11;101005.75;;;10.12;81.33
77590;BME280;66746;51.328;12.332;2023-05-07T07:11:39;101000.19;;;10.16;81.97
77590;BME280;66746;51.328;12.332;2023-05-07T07:14:06;101000.13;;;10.19;80.39
77590;BME280;66746;51.328;12.332;2023-05-07T07:16:38;100991.94;;;10.21;80.55
77590;BME280;66746;51.328;12.332;2023-05-07T07:19:04;100990.94;;;10.25;80.31
77590;BME280;66746;51.328;12.332;2023-05-07T07:21:31;100981.69;;;10.33;80.24
77590;BME280;66746;51.328;12.332;2023-05-07T07:23:59;100981.53;;;10.38;80.63
77590;BME280;66746;51.328;12.332;2023-05-07T07:26:26;100992.06;;;10.50;80.19
77590;BME280;66746;51.328;12.332;2023-05-07T07:28:52;100998.00;;;10.64;79.03
77590;BME280;66746;51.328;12.332;2023-05-07T07:31:21;100997.81;;;10.70;79.02
77590;BME280;66746;51.328;12.332;2023-05-07T07:33:49;101002.97;;;10.81;79.93
77590;BME280;66746;51.328;12.332;2023-05-07T07:36:18;100996.63;;;10.80;77.01
77590;BME280;66746;51.328;12.332;2023-05-07T07:38:53;101003.94;;;10.78;79.27
77590;BME280;66746;51.328;12.332;2023-05-07T07:41:21;100999.91;;;10.60;76.77
77590;BME280;66746;51.328;12.332;2023-05-07T07:43:48;101008.25;;;10.53;77.43
77590;BME280;66746;51.328;12.332;2023-05-07T07:46:16;101004.53;;;10.57;77.75
77590;BME280;66746;51.328;12.332;2023-05-07T07:48:43;101005.66;;;10.48;77.28
77590;BME280;66746;51.328;12.332;2023-05-07T07:51:10;101008.56;;;10.41;77.95
77590;BME280;66746;51.328;12.332;2023-05-07T07:53:36;101006.75;;;10.41;77.00
77590;BME280;66746;51.328;12.332;2023-05-07T07:56:03;101007.53;;;10.46;76.89
77590;BME280;66746;51.328;12.332;2023-05-07T07:58:34;101010.13;;;10.51;77.46
77590;BME280;66746;51.328;12.332;2023-05-07T08:01:00;101019.09;;;10.53;75.77
77590;BME280;66746;51.328;12.332;2023-05-07T08:03:27;101019.00;;;10.56;76.14
77590;BME280;66746;51.328;12.332;2023-05-07T08:05:57;101019.00;;;10.56;75.02
77590;BME280;66746;51.328;12.332;2023-05-07T08:08:24;101019.00;;;10.56;75.53
77590;BME280;66746;51.328;12.332;2023-05-07T08:10:52;101020.88;;;10.54;76.79
77590;BME280;66746;51.328;12.332;2023-05-07T08:13:26;101021.66;;;10.57;77.99
77590;BME280;66746;51.328;12.332;2023-05-07T08:15:54;101026.97;;;10.62;77.14
77590;BME280;66746;51.328;12.332;2023-05-07T08:18:21;101029.63;;;10.65;77.32
77590;BME280;66746;51.328;12.332;2023-05-07T08:20:47;101041.50;;;10.59;76.70
77590;BME280;66746;51.328;12.332;2023-05-07T08:23:19;101038.84;;;10.58;76.17
77590;BME280;66746;51.328;12.332;2023-05-07T08:25:45;101038.34;;;10.42;75.99
77590;BME280;66746;51.328;12.332;2023-05-07T08:28:13;101037.44;;;10.42;76.95
77590;BME280;66746;51.328;12.332;2023-05-07T08:30:40;101038.44;;;10.39;76.68
77590;BME280;66746;51.328;12.332;2023-05-07T08:33:08;101041.03;;;10.44;77.23
77590;BME280;66746;51.328;12.332;2023-05-07T08:35:35;101040.84;;;10.50;77.47
77590;BME280;66746;51.328;12.332;2023-05-07T08:38:03;101044.31;;;10.56;76.17
77590;BME280;66746;51.328;12.332;2023-05-07T08:40:34;101045.09;;;10.60;76.03
77590;BME280;66746;51.328;12.332;2023-05-07T08:43:02;101044.91;;;10.67;76.45
77590;BME280;66746;51.328;12.332;2023-05-07T08:45:33;101046.47;;;10.76;75.07
77590;BME280;66746;51.328;12.332;2023-05-07T08:48:01;101044.78;;;10.72;75.23
77590;BME280;66746;51.328;12.332;2023-05-07T08:50:36;101053.00;;;10.69;74.49
77590;BME280;66746;51.328;12.332;2023-05-07T08:53:04;101056.56;;;10.71;75.79
77590;BME280;66746;51.328;12.332;2023-05-07T08:55:31;101058.19;;;10.78;75.29
77590;BME280;66746;51.328;12.332;2023-05-07T08:57:57;101053.38;;;10.88;76.91
77590;BME280;66746;51.328;12.332;2023-05-07T09:00:24;101056.16;;;10.86;73.51
77590;BME280;66746;51.328;12.332;2023-05-07T09:02:53;101057.22;;;10.81;72.93
77590;BME280;66746;51.328;12.332;2023-05-07T09:05:20;101052.66;;;10.83;73.19
77590;BME280;66746;51.328;12.332;2023-05-07T09:07:48;101056.22;;;10.83;74.73
77590;BME280;66746;51.328;12.332;2023-05-07T09:10:15;101058.69;;;10.92;73.78
77590;BME280;66746;51.328;12.332;2023-05-07T09:12:42;101061.03;;;11.04;75.82
77590;BME280;66746;51.328;12.332;2023-05-07T09:15:11;101057.31;;;11.08;73.92
77590;BME280;66746;51.328;12.332;2023-05-07T09:17:38;101062.50;;;11.17;74.94
77590;BME280;66746;51.328;12.332;2023-05-07T09:20:11;101054.13;;;11.25;74.38
77590;BME280;66746;51.328;12.332;2023-05-07T09:22:39;101065.34;;;11.13;72.90
77590;BME280;66746;51.328;12.332;2023-05-07T09:25:10;101064.59;;;11.06;73.40
77590;BME280;66746;51.328;12.332;2023-05-07T09:27:38;101072.09;;;10.98;72.59
77590;BME280;66746;51.328;12.332;2023-05-07T09:30:22;101061.25;;;10.98;72.77
77590;BME280;66746;51.328;12.332;2023-05-07T09:32:49;101054.81;;;11.02;74.14
77590;BME280;66746;51.328;12.332;2023-05-07T09:35:22;101055.44;;;11.10;74.11
77590;BME280;66746;51.328;12.332;2023-05-07T09:37:55;101056.28;;;11.12;73.07
77590;BME280;66746;51.328;12.332;2023-05-07T09:40:32;101064.44;;;11.12;73.23
77590;BME280;66746;51.328;12.332;2023-05-07T09:43:11;101062.56;;;11.14;72.54
77590;BME280;66746;51.328;12.332;2023-05-07T09:45:46;101066.41;;;11.07;72.32
77590;BME280;66746;51.328;12.332;2023-05-07T09:48:15;101068.16;;;11.08;72.92
77590;BME280;66746;51.328;12.332;2023-05-07T09:50:49;101063.41;;;11.18;73.60
77590;BME280;66746;51.328;12.332;2023-05-07T09:53:23;101059.09;;;11.09;73.36
77590;BME280;66746;51.328;12.332;2023-05-07T09:55:53;101055.53;;;11.07;72.11
77590;BME280;66746;51.328;12.332;2023-05-07T09:58:22;101057.19;;;11.13;73.36
77590;BME280;66746;51.328;12.332;2023-05-07T10:00:50;101060.81;;;11.13;73.26
77590;BME280;66746;51.328;12.332;2023-05-07T10:03:19;101064.94;;;11.26;73.92
77590;BME280;66746;51.328;12.332;2023-05-07T10:05:54;101058.59;;;11.27;73.45
77590;BME280;66746;51.328;12.332;2023-05-07T10:08:22;101052.59;;;11.45;72.25
77590;BME280;66746;51.328;12.332;2023-05-07T10:10:53;101059.53;;;11.55;71.28
77590;BME280;66746;51.328;12.332;2023-05-07T10:13:24;101061.06;;;11.66;70.91
77590;BME280;66746;51.328;12.332;2023-05-07T10:15:55;101070.09;;;11.66;71.17
77590;BME280;66746;51.328;12.332;2023-05-07T10:18:24;101068.34;;;11.64;71.10
77590;BME280;66746;51.328;12.332;2023-05-07T10:20:53;101070.38;;;11.57;71.08
77590;BME280;66746;51.328;12.332;2023-05-07T10:23:23;101063.09;;;11.57;73.14
77590;BME280;66746;51.328;12.332;2023-05-07T10:25:56;101077.06;;;11.44;71.88
77590;BME280;66746;51.328;12.332;2023-05-07T10:28:29;101070.56;;;11.49;72.80
77590;BME280;66746;51.328;12.332;2023-05-07T10:31:03;101081.50;;;11.48;74.16
77590;BME280;66746;51.328;12.332;2023-05-07T10:33:40;101074.47;;;11.41;72.50
77590;BME280;66746;51.328;12.332;2023-05-07T10:36:08;101075.66;;;11.31;73.55
77590;BME280;66746;51.328;12.332;2023-05-07T10:38:35;101076.75;;;11.25;73.87
77590;BME280;66746;51.328;12.332;2023-05-07T10:41:04;101073.88;;;11.30;73.86
77590;BME280;66746;51.328;12.332;2023-05-07T10:43:39;101076.47;;;11.34;72.30
77590;BME280;66746;51.328;12.332;2023-05-07T10:46:10;101082.06;;;11.28;72.73
77590;BME280;66746;51.328;12.332;2023-05-07T10:49:08;101075.72;;;11.29;71.75
77590;BME280;66746;51.328;12.332;2023-05-07T10:51:40;101080.38;;;11.24;71.58
77590;BME280;66746;51.328;12.332;2023-05-07T10:54:23;101082.75;;;11.36;72.57
77590;BME280;66746;51.328;12.332;2023-05-07T11:00:42;101074.72;;;11.63;70.26
77590;BME280;66746;51.328;12.332;2023-05-07T11:03:15;101071.06;;;11.93;71.90
77590;BME280;66746;51.328;12.332;2023-05-07T11:06:08;101081.66;;;12.02;71.33
77590;BME280;66746;51.328;12.332;2023-05-07T11:08:55;101072.59;;;12.01;72.35
77590;BME280;66746;51.328;12.332;2023-05-07T11:11:46;101077.09;;;12.02;70.48
77590;BME280;66746;51.328;12.332;2023-05-07T11:17:04;101070.28;;;12.17;71.94
77590;BME280;66746;51.328;12.332;2023-05-07T11:19:50;101075.38;;;12.27;71.27
77590;BME280;66746;51.328;12.332;2023-05-07T11:22:36;101067.47;;;12.46;70.02
77590;BME280;66746;51.328;12.332;2023-05-07T11:25:18;101066.44;;;12.76;68.31
77590;BME280;66746;51.328;12.332;2023-05-07T11:27:46;101071.81;;;13.04;68.22
77590;BME280;66746;51.328;12.332;2023-05-07T11:30:16;101062.78;;;13.02;69.01
77590;BME280;66746;51.328;12.332;2023-05-07T11:32:47;101068.44;;;12.96;68.71
77590;BME280;66746;51.328;12.332;2023-05-07T11:35:16;101078.91;;;13.08;66.85
77590;BME280;66746;51.328;12.332;2023-05-07T11:37:45;101076.41;;;13.00;67.33
77590;BME280;66746;51.328;12.332;2023-05-07T11:40:13;101066.22;;;12.82;66.70
77590;BME280;66746;51.328;12.332;2023-05-07T11:42:40;101077.63;;;12.67;67.03
77590;BME280;66746;51.328;12.332;2023-05-07T11:45:08;101074.03;;;12.67;68.61
77590;BME280;66746;51.328;12.332;2023-05-07T11:47:35;101071.97;;;12.73;67.53
77590;BME280;66746;51.328;12.332;2023-05-07T11:50:05;101074.03;;;12.91;72.15
77590;BME280;66746;51.328;12.332;2023-05-07T11:52:32;101073.50;;;13.06;66.22
77590;BME280;66746;51.328;12.332;2023-05-07T11:55:00;101071.41;;;13.14;66.41
77590;BME280;66746;51.328;12.332;2023-05-07T11:57:27;101077.00;;;13.10;66.57
77590;BME280;66746;51.328;12.332;2023-05-07T11:59:54;101072.78;;;13.01;65.13
77590;BME280;66746;51.328;12.332;2023-05-07T12:02:20;101071.41;;;12.88;68.98
77590;BME280;66746;51.328;12.332;2023-05-07T12:04:47;101080.97;;;12.75;67.03
77590;BME280;66746;51.328;12.332;2023-05-07T12:07:15;101082.97;;;12.70;66.94
77590;BME280;66746;51.328;12.332;2023-05-07T12:09:42;101070.91;;;12.77;68.06
77590;BME280;66746;51.328;12.332;2023-05-07T12:12:08;101068.53;;;12.93;68.32
77590;BME280;66746;51.328;12.332;2023-05-07T12:14:37;101074.53;;;13.04;65.91
77590;BME280;66746;51.328;12.332;2023-05-07T12:17:04;101073.88;;;12.96;66.78
77590;BME280;66746;51.328;12.332;2023-05-07T12:19:31;101064.75;;;12.97;66.45
77590;BME280;66746;51.328;12.332;2023-05-07T12:22:01;101066.81;;;12.90;66.12
77590;BME280;66746;51.328;12.332;2023-05-07T12:24:42;101068.25;;;13.00;65.46
77590;BME280;66746;51.328;12.332;2023-05-07T12:27:09;101065.03;;;13.15;65.46
77590;BME280;66746;51.328;12.332;2023-05-07T12:29:35;101056.50;;;13.24;63.87
77590;BME280;66746;51.328;12.332;2023-05-07T12:32:02;101061.50;;;13.37;63.48
77590;BME280;66746;51.328;12.332;2023-05-07T12:34:32;101058.53;;;13.43;63.00
77590;BME280;66746;51.328;12.332;2023-05-07T12:37:01;101052.91;;;13.47;63.62
77590;BME280;66746;51.328;12.332;2023-05-07T12:39:30;101055.00;;;13.41;61.34
77590;BME280;66746;51.328;12.332;2023-05-07T12:41:57;101053.25;;;13.61;60.74
77590;BME280;66746;51.328;12.332;2023-05-07T12:44:25;101056.19;;;13.57;62.50
77590;BME280;66746;51.328;12.332;2023-05-07T12:46:55;101068.41;;;13.45;63.13
77590;BME280;66746;51.328;12.332;2023-05-07T12:49:22;101061.44;;;13.38;63.67
77590;BME280;66746;51.328;12.332;2023-05-07T12:51:50;101074.13;;;13.39;65.12
77590;BME280;66746;51.328;12.332;2023-05-07T12:54:27;101061.97;;;13.48;64.18
77590;BME280;66746;51.328;12.332;2023-05-07T12:57:01;101065.47;;;13.74;63.55
77590;BME280;66746;51.328;12.332;2023-05-07T12:59:32;101065.63;;;13.93;60.97